Terminal Aerodrome Forecast
Issued by NWS

Current Version | Previous Version | Graphics & Text | Print | Product List | Glossary On
Versions: 1 2 3 4 5 6 7 8 9 10 11 12 13 14 15 16 17 18 19 20 21 22 23 24 25 26 27 28 29 30 31 32 33 34 35 36 37
000
FTUS41 KRNK 102335
TAFLWB
TAF
KLWB 102335Z 1100/1124 34004KT P6SM SCT040 BKN110
     FM110800 00000KT 5SM BR SCT250
      TEMPO 1108/1112 1/2SM FG VV001
     FM111400 VRB03KT P6SM SCT045=

USA.gov is the U.S. government's official web portal to all federal, state and local government web resources and services.